sensor_id;sensor_type;location;lat;lon;timestamp;P1;durP1;ratioP1;P2;durP2;ratioP2
67041;SDS011;53949;47.790;18.750;2023-04-10T00:01:18;18.00;;;10.00;;
67041;SDS011;53949;47.790;18.750;2023-04-10T00:04:21;25.30;;;11.60;;
67041;SDS011;53949;47.790;18.750;2023-04-10T00:07:26;19.20;;;10.80;;
67041;SDS011;53949;47.790;18.750;2023-04-10T00:10:30;18.73;;;11.00;;
67041;SDS011;53949;47.790;18.750;2023-04-10T00:16:39;19.37;;;10.43;;
67041;SDS011;53949;47.790;18.750;2023-04-10T00:19:42;19.55;;;10.93;;
67041;SDS011;53949;47.790;18.750;2023-04-10T00:22:45;19.50;;;10.68;;
67041;SDS011;53949;47.790;18.750;2023-04-10T00:25:48;20.10;;;11.10;;
67041;SDS011;53949;47.790;18.750;2023-04-10T00:28:51;16.12;;;10.40;;
67041;SDS011;53949;47.790;18.750;2023-04-10T00:31:54;18.87;;;11.45;;
67041;SDS011;53949;47.790;18.750;2023-04-10T00:34:57;21.35;;;11.65;;
67041;SDS011;53949;47.790;18.750;2023-04-10T00:38:01;19.92;;;12.32;;
67041;SDS011;53949;47.790;18.750;2023-04-10T00:41:04;19.15;;;11.00;;
67041;SDS011;53949;47.790;18.750;2023-04-10T00:44:07;21.65;;;11.05;;
67041;SDS011;53949;47.790;18.750;2023-04-10T00:47:12;20.77;;;11.02;;
67041;SDS011;53949;47.790;18.750;2023-04-10T00:50:15;20.83;;;10.97;;
67041;SDS011;53949;47.790;18.750;2023-04-10T00:53:20;23.60;;;11.88;;
67041;SDS011;53949;47.790;18.750;2023-04-10T00:56:23;20.90;;;12.23;;
67041;SDS011;53949;47.790;18.750;2023-04-10T00:59:27;23.35;;;11.63;;
67041;SDS011;53949;47.790;18.750;2023-04-10T01:02:30;18.15;;;10.05;;
67041;SDS011;53949;47.790;18.750;2023-04-10T01:05:34;20.77;;;12.00;;
67041;SDS011;53949;47.790;18.750;2023-04-10T01:08:57;23.95;;;11.65;;
67041;SDS011;53949;47.790;18.750;2023-04-10T01:29:56;22.23;;;12.70;;
67041;SDS011;53949;47.790;18.750;2023-04-10T01:33:02;26.65;;;12.98;;
67041;SDS011;53949;47.790;18.750;2023-04-10T01:36:08;25.17;;;12.85;;
67041;SDS011;53949;47.790;18.750;2023-04-10T01:39:12;25.83;;;12.57;;
67041;SDS011;53949;47.790;18.750;2023-04-10T01:42:17;25.85;;;14.27;;
67041;SDS011;53949;47.790;18.750;2023-04-10T01:48:28;22.67;;;12.50;;
67041;SDS011;53949;47.790;18.750;2023-04-10T01:51:32;19.45;;;11.23;;
67041;SDS011;53949;47.790;18.750;2023-04-10T01:54:36;26.93;;;13.53;;
67041;SDS011;53949;47.790;18.750;2023-04-10T01:57:40;23.12;;;12.77;;
67041;SDS011;53949;47.790;18.750;2023-04-10T02:00:44;23.30;;;12.02;;
67041;SDS011;53949;47.790;18.750;2023-04-10T02:03:47;24.52;;;13.98;;
67041;SDS011;53949;47.790;18.750;2023-04-10T02:07:02;32.90;;;15.18;;
67041;SDS011;53949;47.790;18.750;2023-04-10T02:10:16;23.98;;;13.80;;
67041;SDS011;53949;47.790;18.750;2023-04-10T02:13:23;24.75;;;13.02;;
67041;SDS011;53949;47.790;18.750;2023-04-10T02:16:28;22.85;;;12.93;;
67041;SDS011;53949;47.790;18.750;2023-04-10T02:19:32;24.00;;;12.68;;
67041;SDS011;53949;47.790;18.750;2023-04-10T02:22:36;23.27;;;13.13;;
67041;SDS011;53949;47.790;18.750;2023-04-10T02:25:39;22.13;;;12.90;;
67041;SDS011;53949;47.790;18.750;2023-04-10T02:28:43;24.75;;;13.73;;
67041;SDS011;53949;47.790;18.750;2023-04-10T02:31:47;23.70;;;13.88;;
67041;SDS011;53949;47.790;18.750;2023-04-10T02:34:50;30.10;;;14.07;;
67041;SDS011;53949;47.790;18.750;2023-04-10T02:37:53;24.52;;;13.40;;
67041;SDS011;53949;47.790;18.750;2023-04-10T02:40:57;23.65;;;13.77;;
67041;SDS011;53949;47.790;18.750;2023-04-10T02:44:00;29.02;;;15.73;;
67041;SDS011;53949;47.790;18.750;2023-04-10T02:47:04;24.48;;;14.32;;
67041;SDS011;53949;47.790;18.750;2023-04-10T02:50:09;26.42;;;14.87;;
67041;SDS011;53949;47.790;18.750;2023-04-10T02:53:15;25.85;;;14.77;;
67041;SDS011;53949;47.790;18.750;2023-04-10T02:56:18;25.50;;;13.98;;
67041;SDS011;53949;47.790;18.750;2023-04-10T02:59:22;26.67;;;13.57;;
67041;SDS011;53949;47.790;18.750;2023-04-10T03:02:25;30.45;;;14.90;;
67041;SDS011;53949;47.790;18.750;2023-04-10T03:05:30;26.15;;;14.40;;
67041;SDS011;53949;47.790;18.750;2023-04-10T03:08:34;26.52;;;14.43;;
67041;SDS011;53949;47.790;18.750;2023-04-10T03:11:37;26.45;;;14.60;;
67041;SDS011;53949;47.790;18.750;2023-04-10T03:14:40;27.65;;;15.15;;
67041;SDS011;53949;47.790;18.750;2023-04-10T03:17:43;27.98;;;14.05;;
67041;SDS011;53949;47.790;18.750;2023-04-10T03:20:48;29.93;;;14.97;;
67041;SDS011;53949;47.790;18.750;2023-04-10T03:23:54;26.83;;;15.15;;
67041;SDS011;53949;47.790;18.750;2023-04-10T03:26:57;25.60;;;15.77;;
67041;SDS011;53949;47.790;18.750;2023-04-10T03:30:01;27.08;;;14.60;;
67041;SDS011;53949;47.790;18.750;2023-04-10T03:33:11;27.45;;;14.75;;
67041;SDS011;53949;47.790;18.750;2023-04-10T03:36:16;25.85;;;15.05;;
67041;SDS011;53949;47.790;18.750;2023-04-10T03:39:21;26.40;;;15.23;;
67041;SDS011;53949;47.790;18.750;2023-04-10T03:42:28;28.33;;;15.13;;
67041;SDS011;53949;47.790;18.750;2023-04-10T03:45:32;31.42;;;16.67;;
67041;SDS011;53949;47.790;18.750;2023-04-10T03:48:37;29.00;;;15.68;;
67041;SDS011;53949;47.790;18.750;2023-04-10T03:51:40;29.33;;;16.02;;
67041;SDS011;53949;47.790;18.750;2023-04-10T03:54:43;31.10;;;14.85;;
67041;SDS011;53949;47.790;18.750;2023-04-10T03:57:52;30.33;;;15.68;;
67041;SDS011;53949;47.790;18.750;2023-04-10T04:00:55;26.80;;;15.73;;
67041;SDS011;53949;47.790;18.750;2023-04-10T04:03:59;29.30;;;16.80;;
67041;SDS011;53949;47.790;18.750;2023-04-10T04:07:08;34.65;;;18.08;;
67041;SDS011;53949;47.790;18.750;2023-04-10T04:10:14;30.23;;;16.27;;
67041;SDS011;53949;47.790;18.750;2023-04-10T04:13:22;34.60;;;17.25;;
67041;SDS011;53949;47.790;18.750;2023-04-10T04:16:27;30.55;;;16.35;;
67041;SDS011;53949;47.790;18.750;2023-04-10T04:19:30;30.33;;;17.23;;
67041;SDS011;53949;47.790;18.750;2023-04-10T04:22:35;33.10;;;17.02;;
67041;SDS011;53949;47.790;18.750;2023-04-10T04:25:39;32.97;;;16.73;;
67041;SDS011;53949;47.790;18.750;2023-04-10T04:28:43;30.70;;;16.80;;
67041;SDS011;53949;47.790;18.750;2023-04-10T04:31:47;28.60;;;15.65;;
67041;SDS011;53949;47.790;18.750;2023-04-10T04:34:50;31.60;;;17.25;;
67041;SDS011;53949;47.790;18.750;2023-04-10T04:37:54;35.63;;;17.52;;
67041;SDS011;53949;47.790;18.750;2023-04-10T04:40:58;34.42;;;17.10;;
67041;SDS011;53949;47.790;18.750;2023-04-10T04:44:03;30.77;;;17.07;;
67041;SDS011;53949;47.790;18.750;2023-04-10T04:47:07;30.42;;;16.77;;
67041;SDS011;53949;47.790;18.750;2023-04-10T04:50:11;32.63;;;17.70;;
67041;SDS011;53949;47.790;18.750;2023-04-10T04:53:15;30.25;;;17.60;;
67041;SDS011;53949;47.790;18.750;2023-04-10T04:56:18;30.70;;;16.50;;
67041;SDS011;53949;47.790;18.750;2023-04-10T04:59:21;33.05;;;16.87;;
67041;SDS011;53949;47.790;18.750;2023-04-10T05:02:26;34.35;;;17.80;;
67041;SDS011;53949;47.790;18.750;2023-04-10T05:05:31;30.37;;;16.80;;
67041;SDS011;53949;47.790;18.750;2023-04-10T05:08:35;32.33;;;17.10;;
67041;SDS011;53949;47.790;18.750;2023-04-10T05:11:40;32.55;;;17.90;;
67041;SDS011;53949;47.790;18.750;2023-04-10T05:14:45;31.02;;;16.60;;
67041;SDS011;53949;47.790;18.750;2023-04-10T05:17:51;32.58;;;17.10;;
67041;SDS011;53949;47.790;18.750;2023-04-10T05:21:00;29.73;;;16.23;;
67041;SDS011;53949;47.790;18.750;2023-04-10T05:24:05;28.70;;;16.08;;
67041;SDS011;53949;47.790;18.750;2023-04-10T05:27:09;28.90;;;15.85;;
67041;SDS011;53949;47.790;18.750;2023-04-10T05:30:16;30.42;;;17.35;;
67041;SDS011;53949;47.790;18.750;2023-04-10T05:33:19;30.30;;;16.60;;
67041;SDS011;53949;47.790;18.750;2023-04-10T05:39:29;29.48;;;15.15;;
67041;SDS011;53949;47.790;18.750;2023-04-10T05:42:34;31.92;;;17.42;;
67041;SDS011;53949;47.790;18.750;2023-04-10T05:45:37;29.55;;;17.05;;
67041;SDS011;53949;47.790;18.750;2023-04-10T05:48:40;29.50;;;17.05;;
67041;SDS011;53949;47.790;18.750;2023-04-10T05:51:44;31.92;;;17.95;;
67041;SDS011;53949;47.790;18.750;2023-04-10T05:54:52;38.85;;;20.48;;
67041;SDS011;53949;47.790;18.750;2023-04-10T05:57:55;45.38;;;22.05;;
67041;SDS011;53949;47.790;18.750;2023-04-10T06:00:58;37.13;;;20.02;;
67041;SDS011;53949;47.790;18.750;2023-04-10T06:04:03;34.50;;;19.23;;
67041;SDS011;53949;47.790;18.750;2023-04-10T06:07:07;42.95;;;22.00;;
67041;SDS011;53949;47.790;18.750;2023-04-10T06:10:10;41.80;;;23.25;;
67041;SDS011;53949;47.790;18.750;2023-04-10T06:13:13;42.10;;;22.67;;
67041;SDS011;53949;47.790;18.750;2023-04-10T06:16:17;43.70;;;23.38;;
67041;SDS011;53949;47.790;18.750;2023-04-10T06:19:20;40.80;;;22.90;;
67041;SDS011;53949;47.790;18.750;2023-04-10T06:22:25;38.95;;;21.65;;
67041;SDS011;53949;47.790;18.750;2023-04-10T06:25:28;36.78;;;19.00;;
67041;SDS011;53949;47.790;18.750;2023-04-10T06:28:33;39.28;;;20.98;;
67041;SDS011;53949;47.790;18.750;2023-04-10T06:31:37;36.58;;;20.12;;
67041;SDS011;53949;47.790;18.750;2023-04-10T06:34:42;33.72;;;18.42;;
67041;SDS011;53949;47.790;18.750;2023-04-10T06:37:50;28.98;;;17.40;;
67041;SDS011;53949;47.790;18.750;2023-04-10T06:40:53;32.38;;;19.25;;
67041;SDS011;53949;47.790;18.750;2023-04-10T06:43:57;34.65;;;19.95;;
67041;SDS011;53949;47.790;18.750;2023-04-10T06:47:04;33.15;;;17.85;;
67041;SDS011;53949;47.790;18.750;2023-04-10T06:50:10;36.97;;;19.85;;
67041;SDS011;53949;47.790;18.750;2023-04-10T06:53:15;31.03;;;19.73;;
67041;SDS011;53949;47.790;18.750;2023-04-10T06:56:19;34.08;;;18.15;;
67041;SDS011;53949;47.790;18.750;2023-04-10T06:59:22;30.83;;;18.42;;
67041;SDS011;53949;47.790;18.750;2023-04-10T07:02:25;30.92;;;17.58;;
67041;SDS011;53949;47.790;18.750;2023-04-10T07:05:29;32.40;;;17.83;;
67041;SDS011;53949;47.790;18.750;2023-04-10T07:08:32;36.85;;;18.90;;
67041;SDS011;53949;47.790;18.750;2023-04-10T07:11:35;31.45;;;18.12;;
67041;SDS011;53949;47.790;18.750;2023-04-10T07:14:38;34.17;;;17.45;;
67041;SDS011;53949;47.790;18.750;2023-04-10T07:17:42;31.12;;;16.92;;
67041;SDS011;53949;47.790;18.750;2023-04-10T07:20:45;31.25;;;18.40;;
67041;SDS011;53949;47.790;18.750;2023-04-10T07:23:48;32.13;;;17.83;;
67041;SDS011;53949;47.790;18.750;2023-04-10T07:26:51;30.75;;;18.62;;
67041;SDS011;53949;47.790;18.750;2023-04-10T07:29:54;33.10;;;18.27;;
67041;SDS011;53949;47.790;18.750;2023-04-10T07:32:58;30.70;;;17.02;;
67041;SDS011;53949;47.790;18.750;2023-04-10T07:36:03;30.25;;;16.92;;
67041;SDS011;53949;47.790;18.750;2023-04-10T07:39:08;26.42;;;15.48;;
67041;SDS011;53949;47.790;18.750;2023-04-10T07:42:13;28.67;;;16.65;;
67041;SDS011;53949;47.790;18.750;2023-04-10T07:45:15;27.37;;;16.37;;
67041;SDS011;53949;47.790;18.750;2023-04-10T07:48:19;28.83;;;16.48;;
67041;SDS011;53949;47.790;18.750;2023-04-10T07:51:22;25.10;;;15.25;;
67041;SDS011;53949;47.790;18.750;2023-04-10T07:54:25;23.20;;;13.75;;
67041;SDS011;53949;47.790;18.750;2023-04-10T07:57:28;27.02;;;15.65;;
67041;SDS011;53949;47.790;18.750;2023-04-10T08:00:32;27.80;;;16.15;;
67041;SDS011;53949;47.790;18.750;2023-04-10T08:03:36;26.10;;;15.65;;
67041;SDS011;53949;47.790;18.750;2023-04-10T08:06:43;28.65;;;16.60;;
67041;SDS011;53949;47.790;18.750;2023-04-10T08:09:46;30.23;;;17.10;;
67041;SDS011;53949;47.790;18.750;2023-04-10T08:12:49;28.27;;;16.87;;
67041;SDS011;53949;47.790;18.750;2023-04-10T08:15:52;27.60;;;16.12;;
67041;SDS011;53949;47.790;18.750;2023-04-10T08:18:56;28.73;;;16.83;;
67041;SDS011;53949;47.790;18.750;2023-04-10T08:21:59;32.58;;;17.83;;
67041;SDS011;53949;47.790;18.750;2023-04-10T08:25:03;31.42;;;17.77;;
67041;SDS011;53949;47.790;18.750;2023-04-10T08:28:07;27.67;;;16.35;;
67041;SDS011;53949;47.790;18.750;2023-04-10T08:31:12;26.30;;;15.82;;
67041;SDS011;53949;47.790;18.750;2023-04-10T08:34:17;26.83;;;16.58;;
67041;SDS011;53949;47.790;18.750;2023-04-10T08:37:20;27.08;;;16.55;;
67041;SDS011;53949;47.790;18.750;2023-04-10T08:40:23;24.58;;;15.25;;
67041;SDS011;53949;47.790;18.750;2023-04-10T08:43:26;24.10;;;14.40;;
67041;SDS011;53949;47.790;18.750;2023-04-10T08:46:30;22.20;;;13.52;;
67041;SDS011;53949;47.790;18.750;2023-04-10T08:52:42;25.10;;;15.07;;
67041;SDS011;53949;47.790;18.750;2023-04-10T08:55:45;23.57;;;14.17;;
67041;SDS011;53949;47.790;18.750;2023-04-10T08:58:49;21.80;;;13.65;;
67041;SDS011;53949;47.790;18.750;2023-04-10T09:01:53;20.20;;;12.77;;
67041;SDS011;53949;47.790;18.750;2023-04-10T09:04:57;21.70;;;13.40;;
67041;SDS011;53949;47.790;18.750;2023-04-10T09:08:06;24.70;;;14.07;;
67041;SDS011;53949;47.790;18.750;2023-04-10T09:11:09;23.20;;;14.40;;
67041;SDS011;53949;47.790;18.750;2023-04-10T09:17:24;24.85;;;14.73;;
67041;SDS011;53949;47.790;18.750;2023-04-10T09:20:30;23.23;;;13.77;;
67041;SDS011;53949;47.790;18.750;2023-04-10T09:23:34;22.80;;;13.32;;
67041;SDS011;53949;47.790;18.750;2023-04-10T09:26:37;23.05;;;12.70;;
67041;SDS011;53949;47.790;18.750;2023-04-10T09:29:44;21.60;;;13.05;;
67041;SDS011;53949;47.790;18.750;2023-04-10T09:32:50;19.65;;;12.63;;
67041;SDS011;53949;47.790;18.750;2023-04-10T09:35:54;24.58;;;13.40;;
67041;SDS011;53949;47.790;18.750;2023-04-10T09:38:59;21.60;;;13.05;;
67041;SDS011;53949;47.790;18.750;2023-04-10T09:42:02;21.37;;;11.55;;
67041;SDS011;53949;47.790;18.750;2023-04-10T09:45:06;22.62;;;14.55;;
67041;SDS011;53949;47.790;18.750;2023-04-10T09:48:09;18.70;;;11.18;;
67041;SDS011;53949;47.790;18.750;2023-04-10T09:51:26;15.13;;;8.50;;
67041;SDS011;53949;47.790;18.750;2023-04-10T09:54:36;15.07;;;9.75;;
67041;SDS011;53949;47.790;18.750;2023-04-10T09:57:39;19.17;;;11.60;;
67041;SDS011;53949;47.790;18.750;2023-04-10T10:00:46;21.40;;;13.35;;
67041;SDS011;53949;47.790;18.750;2023-04-10T10:03:51;20.83;;;12.88;;
67041;SDS011;53949;47.790;18.750;2023-04-10T10:06:59;22.23;;;13.93;;
67041;SDS011;53949;47.790;18.750;2023-04-10T10:10:03;19.62;;;13.07;;
67041;SDS011;53949;47.790;18.750;2023-04-10T10:13:08;15.23;;;9.48;;
67041;SDS011;53949;47.790;18.750;2023-04-10T10:19:41;15.68;;;9.90;;
67041;SDS011;53949;47.790;18.750;2023-04-10T10:22:48;13.15;;;8.05;;
67041;SDS011;53949;47.790;18.750;2023-04-10T10:25:52;12.90;;;7.43;;
67041;SDS011;53949;47.790;18.750;2023-04-10T10:28:56;11.80;;;7.10;;
67041;SDS011;53949;47.790;18.750;2023-04-10T10:31:59;9.10;;;6.43;;
67041;SDS011;53949;47.790;18.750;2023-04-10T10:35:04;11.52;;;7.35;;
67041;SDS011;53949;47.790;18.750;2023-04-10T10:38:09;11.75;;;7.45;;
67041;SDS011;53949;47.790;18.750;2023-04-10T10:41:15;11.70;;;8.32;;
67041;SDS011;53949;47.790;18.750;2023-04-10T10:44:26;12.95;;;8.25;;
67041;SDS011;53949;47.790;18.750;2023-04-10T10:47:38;12.52;;;7.93;;
67041;SDS011;53949;47.790;18.750;2023-04-10T10:50:52;14.25;;;8.43;;
67041;SDS011;53949;47.790;18.750;2023-04-10T10:54:08;16.90;;;9.95;;
67041;SDS011;53949;47.790;18.750;2023-04-10T10:57:45;16.52;;;9.77;;
67041;SDS011;53949;47.790;18.750;2023-04-10T11:03:54;13.40;;;8.95;;
67041;SDS011;53949;47.790;18.750;2023-04-10T11:06:57;13.15;;;8.70;;
67041;SDS011;53949;47.790;18.750;2023-04-10T11:10:01;12.80;;;8.90;;
67041;SDS011;53949;47.790;18.750;2023-04-10T11:13:13;13.98;;;8.35;;
67041;SDS011;53949;47.790;18.750;2023-04-10T11:16:21;12.07;;;8.15;;
67041;SDS011;53949;47.790;18.750;2023-04-10T11:19:26;10.48;;;7.22;;
67041;SDS011;53949;47.790;18.750;2023-04-10T11:22:29;13.18;;;8.20;;
67041;SDS011;53949;47.790;18.750;2023-04-10T11:25:49;12.60;;;7.37;;
67041;SDS011;53949;47.790;18.750;2023-04-10T11:28:53;9.18;;;6.93;;
67041;SDS011;53949;47.790;18.750;2023-04-10T11:31:58;9.35;;;6.72;;
67041;SDS011;53949;47.790;18.750;2023-04-10T11:35:03;9.85;;;6.65;;
67041;SDS011;53949;47.790;18.750;2023-04-10T11:38:10;9.85;;;6.53;;
67041;SDS011;53949;47.790;18.750;2023-04-10T11:41:15;9.23;;;6.45;;
67041;SDS011;53949;47.790;18.750;2023-04-10T11:44:26;10.38;;;6.10;;
67041;SDS011;53949;47.790;18.750;2023-04-10T11:47:29;8.40;;;6.40;;
67041;SDS011;53949;47.790;18.750;2023-04-10T11:50:32;9.55;;;6.32;;
67041;SDS011;53949;47.790;18.750;2023-04-10T11:53:37;10.30;;;6.28;;
67041;SDS011;53949;47.790;18.750;2023-04-10T11:56:42;8.10;;;6.20;;
67041;SDS011;53949;47.790;18.750;2023-04-10T11:59:48;8.95;;;6.40;;
67041;SDS011;53949;47.790;18.750;2023-04-10T12:02:52;7.82;;;6.00;;
67041;SDS011;53949;47.790;18.750;2023-04-10T12:05:56;8.57;;;6.28;;
67041;SDS011;53949;47.790;18.750;2023-04-10T12:08:59;7.20;;;5.87;;
67041;SDS011;53949;47.790;18.750;2023-04-10T12:12:03;8.32;;;5.57;;
67041;SDS011;53949;47.790;18.750;2023-04-10T12:15:26;7.72;;;5.43;;
67041;SDS011;53949;47.790;18.750;2023-04-10T12:18:30;9.02;;;6.37;;
67041;SDS011;53949;47.790;18.750;2023-04-10T12:21:37;8.05;;;5.25;;
67041;SDS011;53949;47.790;18.750;2023-04-10T12:24:45;6.32;;;5.70;;
67041;SDS011;53949;47.790;18.750;2023-04-10T12:27:49;8.50;;;6.03;;
67041;SDS011;53949;47.790;18.750;2023-04-10T12:30:53;6.80;;;5.37;;
67041;SDS011;53949;47.790;18.750;2023-04-10T12:33:56;9.45;;;5.95;;
67041;SDS011;53949;47.790;18.750;2023-04-10T12:37:00;8.82;;;5.78;;
67041;SDS011;53949;47.790;18.750;2023-04-10T12:40:05;7.25;;;5.80;;
67041;SDS011;53949;47.790;18.750;2023-04-10T12:43:09;7.03;;;5.90;;
67041;SDS011;53949;47.790;18.750;2023-04-10T12:46:21;7.75;;;5.97;;
67041;SDS011;53949;47.790;18.750;2023-04-10T12:49:26;6.70;;;5.33;;
67041;SDS011;53949;47.790;18.750;2023-04-10T12:52:29;8.23;;;5.82;;
67041;SDS011;53949;47.790;18.750;2023-04-10T12:55:32;8.23;;;6.50;;
67041;SDS011;53949;47.790;18.750;2023-04-10T12:58:35;7.25;;;5.97;;
67041;SDS011;53949;47.790;18.750;2023-04-10T13:01:38;6.87;;;6.17;;
67041;SDS011;53949;47.790;18.750;2023-04-10T13:04:42;7.90;;;5.80;;
67041;SDS011;53949;47.790;18.750;2023-04-10T13:07:45;7.83;;;6.40;;
67041;SDS011;53949;47.790;18.750;2023-04-10T13:10:48;9.02;;;6.95;;
67041;SDS011;53949;47.790;18.750;2023-04-10T13:13:52;7.97;;;6.00;;
67041;SDS011;53949;47.790;18.750;2023-04-10T13:16:56;6.40;;;5.53;;
67041;SDS011;53949;47.790;18.750;2023-04-10T13:19:59;7.22;;;5.80;;
67041;SDS011;53949;47.790;18.750;2023-04-10T13:23:02;7.80;;;5.93;;
67041;SDS011;53949;47.790;18.750;2023-04-10T13:26:06;7.57;;;5.97;;
67041;SDS011;53949;47.790;18.750;2023-04-10T13:29:09;6.60;;;5.53;;
67041;SDS011;53949;47.790;18.750;2023-04-10T13:32:12;8.50;;;5.40;;
67041;SDS011;53949;47.790;18.750;2023-04-10T13:35:15;7.07;;;5.60;;
67041;SDS011;53949;47.790;18.750;2023-04-10T13:38:18;9.88;;;4.95;;
67041;SDS011;53949;47.790;18.750;2023-04-10T13:41:22;5.53;;;4.78;;
67041;SDS011;53949;47.790;18.750;2023-04-10T13:44:26;5.63;;;4.87;;
67041;SDS011;53949;47.790;18.750;2023-04-10T13:47:29;5.67;;;5.10;;
67041;SDS011;53949;47.790;18.750;2023-04-10T13:50:32;5.57;;;5.07;;
67041;SDS011;53949;47.790;18.750;2023-04-10T13:53:35;5.55;;;5.05;;
67041;SDS011;53949;47.790;18.750;2023-04-10T13:56:39;5.85;;;5.25;;
67041;SDS011;53949;47.790;18.750;2023-04-10T13:59:44;5.95;;;5.35;;
67041;SDS011;53949;47.790;18.750;2023-04-10T14:02:47;8.25;;;5.05;;
67041;SDS011;53949;47.790;18.750;2023-04-10T14:05:50;6.03;;;5.18;;
67041;SDS011;53949;47.790;18.750;2023-04-10T14:08:54;7.37;;;5.55;;
67041;SDS011;53949;47.790;18.750;2023-04-10T14:11:57;6.53;;;5.07;;
67041;SDS011;53949;47.790;18.750;2023-04-10T14:15:00;5.90;;;5.30;;
67041;SDS011;53949;47.790;18.750;2023-04-10T14:18:04;5.97;;;5.37;;
67041;SDS011;53949;47.790;18.750;2023-04-10T14:21:07;6.35;;;4.90;;
67041;SDS011;53949;47.790;18.750;2023-04-10T14:24:10;5.80;;;5.20;;
67041;SDS011;53949;47.790;18.750;2023-04-10T14:27:13;6.37;;;4.95;;
67041;SDS011;53949;47.790;18.750;2023-04-10T14:30:17;7.37;;;5.43;;
67041;SDS011;53949;47.790;18.750;2023-04-10T14:33:20;6.25;;;5.65;;
67041;SDS011;53949;47.790;18.750;2023-04-10T14:36:23;6.35;;;5.62;;
67041;SDS011;53949;47.790;18.750;2023-04-10T14:39:26;6.45;;;5.37;;
67041;SDS011;53949;47.790;18.750;2023-04-10T14:42:30;5.85;;;5.30;;
67041;SDS011;53949;47.790;18.750;2023-04-10T14:45:34;7.05;;;5.47;;
67041;SDS011;53949;47.790;18.750;2023-04-10T14:48:38;7.05;;;5.57;;
67041;SDS011;53949;47.790;18.750;2023-04-10T14:51:42;6.47;;;5.37;;
67041;SDS011;53949;47.790;18.750;2023-04-10T14:54:46;6.07;;;5.22;;
67041;SDS011;53949;47.790;18.750;2023-04-10T14:57:49;6.80;;;5.30;;
67041;SDS011;53949;47.790;18.750;2023-04-10T15:00:53;6.83;;;5.23;;
67041;SDS011;53949;47.790;18.750;2023-04-10T15:03:55;8.63;;;6.57;;
67041;SDS011;53949;47.790;18.750;2023-04-10T15:06:59;6.78;;;5.85;;
67041;SDS011;53949;47.790;18.750;2023-04-10T15:10:03;7.00;;;5.57;;
67041;SDS011;53949;47.790;18.750;2023-04-10T15:13:11;8.65;;;6.65;;
67041;SDS011;53949;47.790;18.750;2023-04-10T15:16:15;6.55;;;5.87;;
67041;SDS011;53949;47.790;18.750;2023-04-10T15:19:18;6.90;;;6.20;;
67041;SDS011;53949;47.790;18.750;2023-04-10T15:22:21;8.63;;;7.07;;
67041;SDS011;53949;47.790;18.750;2023-04-10T15:25:24;8.90;;;6.82;;
67041;SDS011;53949;47.790;18.750;2023-04-10T15:28:27;8.75;;;6.87;;
67041;SDS011;53949;47.790;18.750;2023-04-10T15:31:31;8.98;;;6.37;;
67041;SDS011;53949;47.790;18.750;2023-04-10T15:34:33;7.78;;;6.47;;
67041;SDS011;53949;47.790;18.750;2023-04-10T15:37:37;11.82;;;7.45;;
67041;SDS011;53949;47.790;18.750;2023-04-10T15:40:40;8.38;;;6.55;;
67041;SDS011;53949;47.790;18.750;2023-04-10T15:43:44;8.35;;;7.03;;
67041;SDS011;53949;47.790;18.750;2023-04-10T15:46:47;9.75;;;7.62;;
67041;SDS011;53949;47.790;18.750;2023-04-10T15:49:50;9.15;;;7.78;;
67041;SDS011;53949;47.790;18.750;2023-04-10T15:52:53;9.50;;;7.47;;
67041;SDS011;53949;47.790;18.750;2023-04-10T15:55:57;8.68;;;7.40;;
67041;SDS011;53949;47.790;18.750;2023-04-10T15:59:00;9.98;;;7.93;;
67041;SDS011;53949;47.790;18.750;2023-04-10T16:02:03;14.48;;;8.48;;
67041;SDS011;53949;47.790;18.750;2023-04-10T16:05:06;11.90;;;8.23;;
67041;SDS011;53949;47.790;18.750;2023-04-10T16:08:10;12.10;;;8.70;;
67041;SDS011;53949;47.790;18.750;2023-04-10T16:11:14;10.85;;;8.27;;
67041;SDS011;53949;47.790;18.750;2023-04-10T16:14:17;11.23;;;7.90;;
67041;SDS011;53949;47.790;18.750;2023-04-10T16:17:21;11.00;;;8.48;;
67041;SDS011;53949;47.790;18.750;2023-04-10T16:20:25;13.13;;;8.93;;
67041;SDS011;53949;47.790;18.750;2023-04-10T16:23:31;12.90;;;8.82;;
67041;SDS011;53949;47.790;18.750;2023-04-10T16:26:34;12.90;;;9.30;;
67041;SDS011;53949;47.790;18.750;2023-04-10T16:29:37;12.70;;;8.95;;
67041;SDS011;53949;47.790;18.750;2023-04-10T16:32:40;12.52;;;8.85;;
67041;SDS011;53949;47.790;18.750;2023-04-10T16:35:44;11.85;;;8.65;;
67041;SDS011;53949;47.790;18.750;2023-04-10T16:38:47;12.05;;;8.88;;
67041;SDS011;53949;47.790;18.750;2023-04-10T16:41:51;13.02;;;9.05;;
67041;SDS011;53949;47.790;18.750;2023-04-10T16:44:55;12.57;;;9.05;;
67041;SDS011;53949;47.790;18.750;2023-04-10T16:48:00;10.82;;;7.90;;
67041;SDS011;53949;47.790;18.750;2023-04-10T16:51:03;12.82;;;8.73;;
67041;SDS011;53949;47.790;18.750;2023-04-10T16:54:08;11.45;;;8.55;;
67041;SDS011;53949;47.790;18.750;2023-04-10T16:57:11;10.18;;;7.75;;
67041;SDS011;53949;47.790;18.750;2023-04-10T17:00:14;11.73;;;8.10;;
67041;SDS011;53949;47.790;18.750;2023-04-10T17:03:18;11.43;;;8.40;;
67041;SDS011;53949;47.790;18.750;2023-04-10T17:06:21;10.43;;;7.87;;
67041;SDS011;53949;47.790;18.750;2023-04-10T17:09:24;10.82;;;7.85;;
67041;SDS011;53949;47.790;18.750;2023-04-10T17:12:28;12.57;;;8.43;;
67041;SDS011;53949;47.790;18.750;2023-04-10T17:15:31;12.73;;;8.52;;
67041;SDS011;53949;47.790;18.750;2023-04-10T17:18:34;13.52;;;9.10;;
67041;SDS011;53949;47.790;18.750;2023-04-10T17:21:37;12.45;;;9.10;;
67041;SDS011;53949;47.790;18.750;2023-04-10T17:24:41;13.75;;;8.48;;
67041;SDS011;53949;47.790;18.750;2023-04-10T17:27:45;11.73;;;8.63;;
67041;SDS011;53949;47.790;18.750;2023-04-10T17:30:48;12.18;;;8.35;;
67041;SDS011;53949;47.790;18.750;2023-04-10T17:33:51;16.90;;;9.43;;
67041;SDS011;53949;47.790;18.750;2023-04-10T17:36:54;11.68;;;8.63;;
67041;SDS011;53949;47.790;18.750;2023-04-10T17:39:57;12.43;;;8.23;;
67041;SDS011;53949;47.790;18.750;2023-04-10T17:43:01;14.02;;;8.65;;
67041;SDS011;53949;47.790;18.750;2023-04-10T17:46:04;12.18;;;8.40;;
67041;SDS011;53949;47.790;18.750;2023-04-10T17:49:08;12.23;;;8.30;;
67041;SDS011;53949;47.790;18.750;2023-04-10T17:52:12;10.65;;;8.13;;
67041;SDS011;53949;47.790;18.750;2023-04-10T17:55:16;15.27;;;8.00;;
67041;SDS011;53949;47.790;18.750;2023-04-10T17:58:23;13.90;;;8.93;;
67041;SDS011;53949;47.790;18.750;2023-04-10T18:01:27;14.35;;;8.52;;
67041;SDS011;53949;47.790;18.750;2023-04-10T18:04:33;12.60;;;8.77;;
67041;SDS011;53949;47.790;18.750;2023-04-10T18:07:37;11.73;;;7.62;;
67041;SDS011;53949;47.790;18.750;2023-04-10T18:10:40;11.45;;;8.05;;
67041;SDS011;53949;47.790;18.750;2023-04-10T18:13:45;11.20;;;7.82;;
67041;SDS011;53949;47.790;18.750;2023-04-10T18:16:49;11.88;;;8.15;;
67041;SDS011;53949;47.790;18.750;2023-04-10T18:19:52;15.85;;;9.80;;
67041;SDS011;53949;47.790;18.750;2023-04-10T18:22:58;16.77;;;10.45;;
67041;SDS011;53949;47.790;18.750;2023-04-10T18:26:01;11.85;;;8.43;;
67041;SDS011;53949;47.790;18.750;2023-04-10T18:29:06;12.37;;;8.27;;
67041;SDS011;53949;47.790;18.750;2023-04-10T18:32:09;12.55;;;7.95;;
67041;SDS011;53949;47.790;18.750;2023-04-10T18:35:13;13.00;;;7.97;;